sensor_id;sensor_type;location;lat;lon;timestamp;P1;durP1;ratioP1;P2;durP2;ratioP2
18647;SDS011;9453;50.294;18.644;2023-04-15T04:03:04;12.10;;;5.50;;
18647;SDS011;9453;50.294;18.644;2023-04-15T04:05:32;12.97;;;5.57;;
18647;SDS011;9453;50.294;18.644;2023-04-15T04:08:01;12.97;;;6.13;;
18647;SDS011;9453;50.294;18.644;2023-04-15T04:10:28;13.50;;;6.23;;
18647;SDS011;9453;50.294;18.644;2023-04-15T04:12:55;12.30;;;5.60;;
18647;SDS011;9453;50.294;18.644;2023-04-15T04:15:22;13.50;;;5.90;;
18647;SDS011;9453;50.294;18.644;2023-04-15T04:17:49;11.87;;;5.27;;
18647;SDS011;9453;50.294;18.644;2023-04-15T04:20:17;8.97;;;4.67;;
18647;SDS011;9453;50.294;18.644;2023-04-15T04:22:44;8.47;;;3.60;;
18647;SDS011;9453;50.294;18.644;2023-04-15T04:25:11;7.70;;;4.33;;
18647;SDS011;9453;50.294;18.644;2023-04-15T04:27:38;9.87;;;4.80;;
18647;SDS011;9453;50.294;18.644;2023-04-15T04:30:06;8.57;;;4.30;;
18647;SDS011;9453;50.294;18.644;2023-04-15T04:32:33;8.50;;;4.27;;
18647;SDS011;9453;50.294;18.644;2023-04-15T04:35:00;10.10;;;4.53;;
18647;SDS011;9453;50.294;18.644;2023-04-15T04:37:29;6.30;;;3.33;;
18647;SDS011;9453;50.294;18.644;2023-04-15T04:39:56;7.90;;;4.23;;
18647;SDS011;9453;50.294;18.644;2023-04-15T04:42:23;7.07;;;4.13;;
18647;SDS011;9453;50.294;18.644;2023-04-15T04:44:51;8.97;;;4.23;;
18647;SDS011;9453;50.294;18.644;2023-04-15T04:47:18;7.40;;;3.87;;
18647;SDS011;9453;50.294;18.644;2023-04-15T04:49:45;10.20;;;5.40;;
18647;SDS011;9453;50.294;18.644;2023-04-15T04:52:12;12.03;;;5.80;;
18647;SDS011;9453;50.294;18.644;2023-04-15T04:54:40;11.80;;;5.30;;
18647;SDS011;9453;50.294;18.644;2023-04-15T04:57:07;9.70;;;4.63;;
18647;SDS011;9453;50.294;18.644;2023-04-15T04:59:34;7.97;;;4.53;;
18647;SDS011;9453;50.294;18.644;2023-04-15T05:02:02;11.00;;;5.27;;
18647;SDS011;9453;50.294;18.644;2023-04-15T05:04:29;11.63;;;5.07;;
18647;SDS011;9453;50.294;18.644;2023-04-15T05:06:56;8.63;;;4.30;;
18647;SDS011;9453;50.294;18.644;2023-04-15T05:09:23;9.37;;;4.50;;
18647;SDS011;9453;50.294;18.644;2023-04-15T05:11:51;8.40;;;4.27;;
18647;SDS011;9453;50.294;18.644;2023-04-15T05:14:18;8.87;;;4.73;;
18647;SDS011;9453;50.294;18.644;2023-04-15T05:16:45;13.27;;;5.83;;
18647;SDS011;9453;50.294;18.644;2023-04-15T05:19:12;9.50;;;4.97;;
18647;SDS011;9453;50.294;18.644;2023-04-15T05:21:39;9.27;;;5.07;;
18647;SDS011;9453;50.294;18.644;2023-04-15T05:24:06;9.77;;;5.43;;
18647;SDS011;9453;50.294;18.644;2023-04-15T05:26:33;9.57;;;5.00;;
18647;SDS011;9453;50.294;18.644;2023-04-15T05:29:02;14.27;;;6.70;;
18647;SDS011;9453;50.294;18.644;2023-04-15T05:31:29;13.47;;;6.60;;
18647;SDS011;9453;50.294;18.644;2023-04-15T05:33:56;9.07;;;5.60;;
18647;SDS011;9453;50.294;18.644;2023-04-15T05:36:24;12.17;;;6.10;;
18647;SDS011;9453;50.294;18.644;2023-04-15T05:38:51;18.07;;;7.60;;
18647;SDS011;9453;50.294;18.644;2023-04-15T05:41:18;18.40;;;7.40;;
18647;SDS011;9453;50.294;18.644;2023-04-15T05:43:45;17.37;;;8.13;;
18647;SDS011;9453;50.294;18.644;2023-04-15T05:46:14;16.57;;;8.10;;
18647;SDS011;9453;50.294;18.644;2023-04-15T05:48:41;16.83;;;8.20;;
18647;SDS011;9453;50.294;18.644;2023-04-15T05:51:08;16.63;;;8.07;;
18647;SDS011;9453;50.294;18.644;2023-04-15T05:53:35;20.53;;;9.00;;
18647;SDS011;9453;50.294;18.644;2023-04-15T05:56:02;19.37;;;8.17;;
18647;SDS011;9453;50.294;18.644;2023-04-15T05:58:31;17.63;;;8.20;;
18647;SDS011;9453;50.294;18.644;2023-04-15T06:00:58;20.70;;;8.27;;
18647;SDS011;9453;50.294;18.644;2023-04-15T06:03:27;17.37;;;7.83;;
18647;SDS011;9453;50.294;18.644;2023-04-15T06:05:54;17.33;;;8.37;;
18647;SDS011;9453;50.294;18.644;2023-04-15T06:08:21;17.13;;;8.00;;
18647;SDS011;9453;50.294;18.644;2023-04-15T06:10:48;20.13;;;9.20;;
18647;SDS011;9453;50.294;18.644;2023-04-15T06:13:15;20.27;;;7.67;;
18647;SDS011;9453;50.294;18.644;2023-04-15T06:15:42;15.53;;;7.57;;
18647;SDS011;9453;50.294;18.644;2023-04-15T06:18:09;16.70;;;7.60;;
18647;SDS011;9453;50.294;18.644;2023-04-15T06:20:38;12.07;;;7.00;;
18647;SDS011;9453;50.294;18.644;2023-04-15T06:23:05;14.20;;;6.83;;
18647;SDS011;9453;50.294;18.644;2023-04-15T06:25:32;14.40;;;6.53;;
18647;SDS011;9453;50.294;18.644;2023-04-15T06:27:59;14.93;;;6.33;;
18647;SDS011;9453;50.294;18.644;2023-04-15T06:30:26;15.10;;;6.77;;
18647;SDS011;9453;50.294;18.644;2023-04-15T06:32:53;13.50;;;5.93;;
18647;SDS011;9453;50.294;18.644;2023-04-15T06:35:21;12.40;;;6.07;;
18647;SDS011;9453;50.294;18.644;2023-04-15T06:37:50;11.50;;;5.83;;
18647;SDS011;9453;50.294;18.644;2023-04-15T06:40:17;11.00;;;5.43;;
18647;SDS011;9453;50.294;18.644;2023-04-15T06:42:44;10.43;;;5.30;;
18647;SDS011;9453;50.294;18.644;2023-04-15T06:45:11;12.77;;;6.00;;
18647;SDS011;9453;50.294;18.644;2023-04-15T06:47:38;13.20;;;6.23;;
18647;SDS011;9453;50.294;18.644;2023-04-15T06:50:06;10.13;;;6.03;;
18647;SDS011;9453;50.294;18.644;2023-04-15T06:52:34;11.10;;;5.63;;
18647;SDS011;9453;50.294;18.644;2023-04-15T06:55:03;13.00;;;5.67;;
18647;SDS011;9453;50.294;18.644;2023-04-15T06:57:31;12.27;;;5.40;;
18647;SDS011;9453;50.294;18.644;2023-04-15T06:59:58;11.50;;;5.23;;
18647;SDS011;9453;50.294;18.644;2023-04-15T07:02:25;9.53;;;4.20;;
18647;SDS011;9453;50.294;18.644;2023-04-15T07:04:52;7.73;;;3.97;;
18647;SDS011;9453;50.294;18.644;2023-04-15T07:07:19;12.63;;;4.90;;
18647;SDS011;9453;50.294;18.644;2023-04-15T07:09:46;9.03;;;4.20;;
18647;SDS011;9453;50.294;18.644;2023-04-15T07:12:15;6.90;;;3.80;;
18647;SDS011;9453;50.294;18.644;2023-04-15T07:14:42;8.27;;;3.60;;
18647;SDS011;9453;50.294;18.644;2023-04-15T07:17:09;5.13;;;2.60;;
18647;SDS011;9453;50.294;18.644;2023-04-15T07:19:36;5.30;;;2.30;;
18647;SDS011;9453;50.294;18.644;2023-04-15T07:22:03;7.90;;;2.87;;
18647;SDS011;9453;50.294;18.644;2023-04-15T07:24:31;4.70;;;2.47;;
18647;SDS011;9453;50.294;18.644;2023-04-15T07:26:58;8.40;;;3.13;;
18647;SDS011;9453;50.294;18.644;2023-04-15T07:29:29;6.63;;;2.80;;
18647;SDS011;9453;50.294;18.644;2023-04-15T07:31:56;4.97;;;2.60;;
18647;SDS011;9453;50.294;18.644;2023-04-15T07:34:23;6.03;;;2.60;;
18647;SDS011;9453;50.294;18.644;2023-04-15T07:36:50;6.43;;;3.07;;
18647;SDS011;9453;50.294;18.644;2023-04-15T07:39:17;5.67;;;2.90;;
18647;SDS011;9453;50.294;18.644;2023-04-15T07:41:44;5.50;;;2.70;;
18647;SDS011;9453;50.294;18.644;2023-04-15T07:44:11;6.87;;;3.43;;
18647;SDS011;9453;50.294;18.644;2023-04-15T07:46:40;5.97;;;3.00;;
18647;SDS011;9453;50.294;18.644;2023-04-15T07:49:06;3.73;;;2.30;;
18647;SDS011;9453;50.294;18.644;2023-04-15T07:51:33;4.77;;;2.73;;
18647;SDS011;9453;50.294;18.644;2023-04-15T07:54:01;9.97;;;3.63;;
18647;SDS011;9453;50.294;18.644;2023-04-15T07:56:28;5.23;;;2.93;;
18647;SDS011;9453;50.294;18.644;2023-04-15T07:58:55;4.83;;;2.20;;
18647;SDS011;9453;50.294;18.644;2023-04-15T08:01:22;4.43;;;2.10;;
18647;SDS011;9453;50.294;18.644;2023-04-15T08:03:50;4.70;;;2.65;;
18647;SDS011;9453;50.294;18.644;2023-04-15T08:06:17;4.28;;;2.25;;
18647;SDS011;9453;50.294;18.644;2023-04-15T08:08:44;3.43;;;2.00;;
18647;SDS011;9453;50.294;18.644;2023-04-15T08:11:11;3.73;;;2.17;;
18647;SDS011;9453;50.294;18.644;2023-04-15T08:13:38;5.53;;;3.08;;
18647;SDS011;9453;50.294;18.644;2023-04-15T08:16:13;8.13;;;3.87;;
18647;SDS011;9453;50.294;18.644;2023-04-15T08:18:43;7.93;;;3.92;;
18647;SDS011;9453;50.294;18.644;2023-04-15T08:21:12;6.10;;;3.17;;
18647;SDS011;9453;50.294;18.644;2023-04-15T08:23:39;8.13;;;3.35;;
18647;SDS011;9453;50.294;18.644;2023-04-15T08:26:06;5.13;;;2.70;;
18647;SDS011;9453;50.294;18.644;2023-04-15T08:28:33;3.90;;;1.90;;
18647;SDS011;9453;50.294;18.644;2023-04-15T08:31:01;3.97;;;1.75;;
18647;SDS011;9453;50.294;18.644;2023-04-15T08:33:28;4.57;;;2.13;;
18647;SDS011;9453;50.294;18.644;2023-04-15T08:35:55;4.10;;;1.95;;
18647;SDS011;9453;50.294;18.644;2023-04-15T08:38:23;3.07;;;1.53;;
18647;SDS011;9453;50.294;18.644;2023-04-15T08:40:56;3.00;;;1.58;;
18647;SDS011;9453;50.294;18.644;2023-04-15T08:43:32;4.28;;;1.55;;
18647;SDS011;9453;50.294;18.644;2023-04-15T08:46:02;3.17;;;1.30;;
18647;SDS011;9453;50.294;18.644;2023-04-15T08:48:31;2.60;;;1.65;;
18647;SDS011;9453;50.294;18.644;2023-04-15T08:51:00;3.30;;;1.50;;
18647;SDS011;9453;50.294;18.644;2023-04-15T08:53:29;4.90;;;2.00;;
18647;SDS011;9453;50.294;18.644;2023-04-15T08:55:56;4.07;;;2.20;;
18647;SDS011;9453;50.294;18.644;2023-04-15T08:58:29;4.70;;;2.28;;
18647;SDS011;9453;50.294;18.644;2023-04-15T09:00:58;4.20;;;1.90;;
18647;SDS011;9453;50.294;18.644;2023-04-15T09:03:25;4.00;;;1.63;;
18647;SDS011;9453;50.294;18.644;2023-04-15T09:05:53;3.40;;;2.30;;
18647;SDS011;9453;50.294;18.644;2023-04-15T09:08:21;4.15;;;2.15;;
18647;SDS011;9453;50.294;18.644;2023-04-15T09:10:49;4.40;;;1.75;;
18647;SDS011;9453;50.294;18.644;2023-04-15T09:13:17;4.45;;;1.73;;
18647;SDS011;9453;50.294;18.644;2023-04-15T09:15:44;4.57;;;1.70;;
18647;SDS011;9453;50.294;18.644;2023-04-15T09:18:11;4.97;;;1.90;;
18647;SDS011;9453;50.294;18.644;2023-04-15T09:20:38;3.20;;;1.70;;
18647;SDS011;9453;50.294;18.644;2023-04-15T09:23:11;2.95;;;1.80;;
18647;SDS011;9453;50.294;18.644;2023-04-15T09:25:39;2.33;;;1.48;;
18647;SDS011;9453;50.294;18.644;2023-04-15T09:28:08;2.50;;;1.50;;
18647;SDS011;9453;50.294;18.644;2023-04-15T09:30:35;2.90;;;1.48;;
18647;SDS011;9453;50.294;18.644;2023-04-15T09:33:03;4.20;;;1.70;;
18647;SDS011;9453;50.294;18.644;2023-04-15T09:35:32;3.53;;;1.60;;
18647;SDS011;9453;50.294;18.644;2023-04-15T09:38:03;4.07;;;1.30;;
18647;SDS011;9453;50.294;18.644;2023-04-15T09:40:32;2.40;;;1.30;;
18647;SDS011;9453;50.294;18.644;2023-04-15T09:43:00;3.22;;;1.48;;
18647;SDS011;9453;50.294;18.644;2023-04-15T09:45:28;4.82;;;2.08;;
18647;SDS011;9453;50.294;18.644;2023-04-15T09:47:56;4.97;;;1.80;;
18647;SDS011;9453;50.294;18.644;2023-04-15T09:50:27;3.63;;;1.73;;
18647;SDS011;9453;50.294;18.644;2023-04-15T09:52:55;2.20;;;1.17;;
18647;SDS011;9453;50.294;18.644;2023-04-15T09:55:23;2.47;;;1.40;;
18647;SDS011;9453;50.294;18.644;2023-04-15T09:57:50;2.72;;;1.02;;
18647;SDS011;9453;50.294;18.644;2023-04-15T10:00:17;1.83;;;1.10;;
18647;SDS011;9453;50.294;18.644;2023-04-15T10:02:46;2.08;;;1.13;;
18647;SDS011;9453;50.294;18.644;2023-04-15T10:05:14;1.95;;;1.13;;
18647;SDS011;9453;50.294;18.644;2023-04-15T10:07:42;2.72;;;1.75;;
18647;SDS011;9453;50.294;18.644;2023-04-15T10:10:10;4.10;;;2.15;;
18647;SDS011;9453;50.294;18.644;2023-04-15T10:12:39;3.10;;;1.63;;
18647;SDS011;9453;50.294;18.644;2023-04-15T10:15:08;3.25;;;1.65;;
18647;SDS011;9453;50.294;18.644;2023-04-15T10:17:41;2.05;;;1.30;;
18647;SDS011;9453;50.294;18.644;2023-04-15T10:20:11;3.45;;;1.55;;
18647;SDS011;9453;50.294;18.644;2023-04-15T10:22:40;3.08;;;1.50;;
18647;SDS011;9453;50.294;18.644;2023-04-15T10:25:09;3.92;;;2.28;;
18647;SDS011;9453;50.294;18.644;2023-04-15T10:27:38;3.65;;;2.03;;
18647;SDS011;9453;50.294;18.644;2023-04-15T10:30:06;3.30;;;1.98;;
18647;SDS011;9453;50.294;18.644;2023-04-15T10:32:34;3.53;;;1.98;;
18647;SDS011;9453;50.294;18.644;2023-04-15T10:35:01;3.05;;;1.60;;
18647;SDS011;9453;50.294;18.644;2023-04-15T10:37:35;4.13;;;1.90;;
18647;SDS011;9453;50.294;18.644;2023-04-15T10:45:25;3.63;;;1.80;;
18647;SDS011;9453;50.294;18.644;2023-04-15T10:47:56;4.50;;;1.50;;
18647;SDS011;9453;50.294;18.644;2023-04-15T10:50:26;2.65;;;1.48;;
18647;SDS011;9453;50.294;18.644;2023-04-15T10:52:57;2.00;;;1.35;;
18647;SDS011;9453;50.294;18.644;2023-04-15T10:55:25;2.47;;;1.30;;
18647;SDS011;9453;50.294;18.644;2023-04-15T10:57:53;2.67;;;1.42;;
18647;SDS011;9453;50.294;18.644;2023-04-15T11:00:25;2.78;;;1.70;;
18647;SDS011;9453;50.294;18.644;2023-04-15T11:02:56;2.53;;;1.40;;
18647;SDS011;9453;50.294;18.644;2023-04-15T11:11:20;3.05;;;1.17;;
18647;SDS011;9453;50.294;18.644;2023-04-15T11:13:48;2.70;;;1.25;;
18647;SDS011;9453;50.294;18.644;2023-04-15T11:16:16;3.40;;;1.50;;
18647;SDS011;9453;50.294;18.644;2023-04-15T11:18:52;2.33;;;1.20;;
18647;SDS011;9453;50.294;18.644;2023-04-15T11:21:19;1.55;;;1.20;;
18647;SDS011;9453;50.294;18.644;2023-04-15T11:23:50;2.92;;;1.60;;
18647;SDS011;9453;50.294;18.644;2023-04-15T11:26:19;2.50;;;1.73;;
18647;SDS011;9453;50.294;18.644;2023-04-15T11:28:51;2.70;;;1.65;;
18647;SDS011;9453;50.294;18.644;2023-04-15T11:31:19;2.40;;;1.45;;
18647;SDS011;9453;50.294;18.644;2023-04-15T11:33:52;3.17;;;1.58;;
18647;SDS011;9453;50.294;18.644;2023-04-15T11:36:22;1.95;;;1.58;;
18647;SDS011;9453;50.294;18.644;2023-04-15T11:38:52;2.50;;;1.50;;
18647;SDS011;9453;50.294;18.644;2023-04-15T11:41:19;3.65;;;1.77;;
18647;SDS011;9453;50.294;18.644;2023-04-15T11:43:47;2.78;;;1.50;;
18647;SDS011;9453;50.294;18.644;2023-04-15T11:46:14;2.97;;;1.40;;
18647;SDS011;9453;50.294;18.644;2023-04-15T11:48:42;3.05;;;1.83;;
18647;SDS011;9453;50.294;18.644;2023-04-15T11:51:11;1.83;;;1.30;;
18647;SDS011;9453;50.294;18.644;2023-04-15T11:53:40;2.72;;;1.42;;
18647;SDS011;9453;50.294;18.644;2023-04-15T11:56:10;2.60;;;1.50;;
18647;SDS011;9453;50.294;18.644;2023-04-15T11:58:42;2.70;;;1.30;;
18647;SDS011;9453;50.294;18.644;2023-04-15T12:01:10;3.42;;;1.40;;
18647;SDS011;9453;50.294;18.644;2023-04-15T12:03:38;2.53;;;1.60;;
18647;SDS011;9453;50.294;18.644;2023-04-15T12:06:10;1.67;;;1.27;;
18647;SDS011;9453;50.294;18.644;2023-04-15T12:11:38;2.08;;;1.20;;
18647;SDS011;9453;50.294;18.644;2023-04-15T12:14:11;1.58;;;0.98;;
18647;SDS011;9453;50.294;18.644;2023-04-15T12:16:42;1.88;;;1.20;;
18647;SDS011;9453;50.294;18.644;2023-04-15T12:19:11;1.80;;;1.10;;
18647;SDS011;9453;50.294;18.644;2023-04-15T12:21:39;1.83;;;1.20;;
18647;SDS011;9453;50.294;18.644;2023-04-15T12:24:09;1.80;;;1.17;;
18647;SDS011;9453;50.294;18.644;2023-04-15T12:26:42;2.80;;;1.75;;
18647;SDS011;9453;50.294;18.644;2023-04-15T12:29:10;2.45;;;1.80;;
18647;SDS011;9453;50.294;18.644;2023-04-15T12:31:46;5.15;;;1.60;;
18647;SDS011;9453;50.294;18.644;2023-04-15T12:34:15;3.58;;;1.60;;
18647;SDS011;9453;50.294;18.644;2023-04-15T12:36:42;4.53;;;1.65;;
18647;SDS011;9453;50.294;18.644;2023-04-15T12:39:09;2.97;;;1.75;;
18647;SDS011;9453;50.294;18.644;2023-04-15T12:41:36;4.88;;;1.90;;
18647;SDS011;9453;50.294;18.644;2023-04-15T12:44:05;4.53;;;1.90;;
18647;SDS011;9453;50.294;18.644;2023-04-15T12:46:32;2.53;;;1.63;;
18647;SDS011;9453;50.294;18.644;2023-04-15T12:48:59;3.03;;;1.73;;
18647;SDS011;9453;50.294;18.644;2023-04-15T12:51:26;2.75;;;1.48;;
18647;SDS011;9453;50.294;18.644;2023-04-15T12:53:54;2.83;;;1.67;;
18647;SDS011;9453;50.294;18.644;2023-04-15T12:56:21;3.13;;;1.80;;
18647;SDS011;9453;50.294;18.644;2023-04-15T12:58:49;3.75;;;1.95;;
18647;SDS011;9453;50.294;18.644;2023-04-15T13:01:16;4.25;;;2.00;;
18647;SDS011;9453;50.294;18.644;2023-04-15T13:03:44;4.55;;;1.80;;
18647;SDS011;9453;50.294;18.644;2023-04-15T13:06:12;5.70;;;1.88;;
18647;SDS011;9453;50.294;18.644;2023-04-15T13:08:39;6.30;;;2.30;;
18647;SDS011;9453;50.294;18.644;2023-04-15T13:11:06;4.30;;;2.25;;
18647;SDS011;9453;50.294;18.644;2023-04-15T13:13:33;4.65;;;2.05;;
18647;SDS011;9453;50.294;18.644;2023-04-15T13:16:01;4.22;;;2.30;;
18647;SDS011;9453;50.294;18.644;2023-04-15T13:18:28;4.07;;;1.88;;
18647;SDS011;9453;50.294;18.644;2023-04-15T13:20:56;5.70;;;1.70;;
18647;SDS011;9453;50.294;18.644;2023-04-15T13:23:23;3.38;;;1.77;;
18647;SDS011;9453;50.294;18.644;2023-04-15T13:25:50;4.03;;;2.03;;
18647;SDS011;9453;50.294;18.644;2023-04-15T13:28:17;2.80;;;1.80;;
18647;SDS011;9453;50.294;18.644;2023-04-15T13:30:44;2.60;;;1.60;;
18647;SDS011;9453;50.294;18.644;2023-04-15T13:33:15;3.25;;;1.80;;
18647;SDS011;9453;50.294;18.644;2023-04-15T13:35:42;3.35;;;1.77;;
18647;SDS011;9453;50.294;18.644;2023-04-15T13:38:09;3.88;;;2.08;;
18647;SDS011;9453;50.294;18.644;2023-04-15T13:40:36;5.35;;;1.88;;
18647;SDS011;9453;50.294;18.644;2023-04-15T13:43:03;10.80;;;2.20;;
18647;SDS011;9453;50.294;18.644;2023-04-15T13:45:30;7.80;;;2.25;;
18647;SDS011;9453;50.294;18.644;2023-04-15T13:47:57;4.70;;;1.90;;
18647;SDS011;9453;50.294;18.644;2023-04-15T13:50:27;4.68;;;2.15;;
18647;SDS011;9453;50.294;18.644;2023-04-15T13:52:57;3.22;;;2.03;;
18647;SDS011;9453;50.294;18.644;2023-04-15T13:55:24;5.35;;;2.58;;
18647;SDS011;9453;50.294;18.644;2023-04-15T13:57:51;5.07;;;2.10;;
18647;SDS011;9453;50.294;18.644;2023-04-15T14:00:18;3.35;;;2.20;;
18647;SDS011;9453;50.294;18.644;2023-04-15T14:02:45;3.35;;;2.05;;
18647;SDS011;9453;50.294;18.644;2023-04-15T14:05:12;3.90;;;1.95;;
18647;SDS011;9453;50.294;18.644;2023-04-15T14:07:40;5.22;;;2.28;;
18647;SDS011;9453;50.294;18.644;2023-04-15T14:10:07;3.05;;;1.88;;
18647;SDS011;9453;50.294;18.644;2023-04-15T14:12:34;3.65;;;2.03;;
18647;SDS011;9453;50.294;18.644;2023-04-15T14:15:02;2.72;;;1.92;;
18647;SDS011;9453;50.294;18.644;2023-04-15T14:17:29;4.70;;;2.40;;
18647;SDS011;9453;50.294;18.644;2023-04-15T14:19:56;6.95;;;2.80;;
18647;SDS011;9453;50.294;18.644;2023-04-15T14:22:23;6.82;;;2.80;;
18647;SDS011;9453;50.294;18.644;2023-04-15T14:24:51;5.70;;;3.00;;
18647;SDS011;9453;50.294;18.644;2023-04-15T14:27:19;7.85;;;2.72;;
18647;SDS011;9453;50.294;18.644;2023-04-15T14:29:46;6.00;;;2.63;;
18647;SDS011;9453;50.294;18.644;2023-04-15T14:32:13;5.22;;;2.63;;
18647;SDS011;9453;50.294;18.644;2023-04-15T14:34:40;7.60;;;3.33;;
18647;SDS011;9453;50.294;18.644;2023-04-15T14:37:07;5.85;;;3.20;;
18647;SDS011;9453;50.294;18.644;2023-04-15T14:39:34;7.82;;;3.28;;
18647;SDS011;9453;50.294;18.644;2023-04-15T14:42:02;5.05;;;2.90;;
18647;SDS011;9453;50.294;18.644;2023-04-15T14:44:30;5.90;;;2.67;;
18647;SDS011;9453;50.294;18.644;2023-04-15T14:46:57;4.75;;;2.35;;
18647;SDS011;9453;50.294;18.644;2023-04-15T14:49:25;6.72;;;3.13;;
18647;SDS011;9453;50.294;18.644;2023-04-15T14:51:53;6.65;;;2.83;;
18647;SDS011;9453;50.294;18.644;2023-04-15T14:54:20;7.32;;;2.70;;
18647;SDS011;9453;50.294;18.644;2023-04-15T14:56:47;11.82;;;3.15;;
18647;SDS011;9453;50.294;18.644;2023-04-15T14:59:16;6.03;;;2.92;;
18647;SDS011;9453;50.294;18.644;2023-04-15T15:01:43;5.75;;;2.95;;
18647;SDS011;9453;50.294;18.644;2023-04-15T15:04:10;5.72;;;3.03;;
18647;SDS011;9453;50.294;18.644;2023-04-15T15:06:38;5.07;;;2.90;;
18647;SDS011;9453;50.294;18.644;2023-04-15T15:09:05;5.53;;;2.85;;
18647;SDS011;9453;50.294;18.644;2023-04-15T15:11:32;5.97;;;2.80;;
18647;SDS011;9453;50.294;18.644;2023-04-15T15:13:59;7.55;;;3.40;;
18647;SDS011;9453;50.294;18.644;2023-04-15T15:16:27;5.20;;;2.80;;
18647;SDS011;9453;50.294;18.644;2023-04-15T15:18:55;6.00;;;2.97;;
18647;SDS011;9453;50.294;18.644;2023-04-15T15:21:22;8.02;;;2.80;;
18647;SDS011;9453;50.294;18.644;2023-04-15T15:23:48;7.75;;;3.72;;
18647;SDS011;9453;50.294;18.644;2023-04-15T15:26:15;5.75;;;3.47;;
18647;SDS011;9453;50.294;18.644;2023-04-15T15:28:44;9.38;;;4.38;;
18647;SDS011;9453;50.294;18.644;2023-04-15T15:31:11;7.75;;;3.83;;
18647;SDS011;9453;50.294;18.644;2023-04-15T15:33:39;5.82;;;3.03;;
18647;SDS011;9453;50.294;18.644;2023-04-15T15:36:06;8.07;;;2.88;;
18647;SDS011;9453;50.294;18.644;2023-04-15T15:38:34;5.10;;;2.83;;
18647;SDS011;9453;50.294;18.644;2023-04-15T15:41:01;4.75;;;2.80;;
18647;SDS011;9453;50.294;18.644;2023-04-15T15:43:29;5.15;;;2.70;;
18647;SDS011;9453;50.294;18.644;2023-04-15T15:45:56;6.05;;;2.67;;
18647;SDS011;9453;50.294;18.644;2023-04-15T15:48:23;5.50;;;3.13;;
18647;SDS011;9453;50.294;18.644;2023-04-15T15:50:52;7.25;;;3.00;;
18647;SDS011;9453;50.294;18.644;2023-04-15T15:53:19;6.53;;;3.25;;
18647;SDS011;9453;50.294;18.644;2023-04-15T15:55:48;7.90;;;3.20;;
18647;SDS011;9453;50.294;18.644;2023-04-15T15:58:15;7.65;;;3.20;;
18647;SDS011;9453;50.294;18.644;2023-04-15T16:00:42;5.65;;;2.90;;
18647;SDS011;9453;50.294;18.644;2023-04-15T16:03:09;6.85;;;3.00;;
18647;SDS011;9453;50.294;18.644;2023-04-15T16:05:36;5.57;;;2.90;;
18647;SDS011;9453;50.294;18.644;2023-04-15T16:08:05;10.30;;;2.97;;
18647;SDS011;9453;50.294;18.644;2023-04-15T16:10:32;4.57;;;2.58;;
18647;SDS011;9453;50.294;18.644;2023-04-15T16:12:59;4.35;;;2.40;;
18647;SDS011;9453;50.294;18.644;2023-04-15T16:15:26;6.15;;;2.38;;
18647;SDS011;9453;50.294;18.644;2023-04-15T16:17:54;4.40;;;2.22;;
18647;SDS011;9453;50.294;18.644;2023-04-15T16:20:21;5.13;;;2.67;;
18647;SDS011;9453;50.294;18.644;2023-04-15T16:22:48;6.35;;;3.05;;
18647;SDS011;9453;50.294;18.644;2023-04-15T16:25:18;7.50;;;3.42;;
18647;SDS011;9453;50.294;18.644;2023-04-15T16:27:45;7.68;;;3.83;;
18647;SDS011;9453;50.294;18.644;2023-04-15T16:30:12;5.68;;;3.28;;
18647;SDS011;9453;50.294;18.644;2023-04-15T16:32:40;6.80;;;3.60;;
18647;SDS011;9453;50.294;18.644;2023-04-15T16:35:07;6.57;;;3.40;;
18647;SDS011;9453;50.294;18.644;2023-04-15T16:37:35;8.10;;;3.40;;
18647;SDS011;9453;50.294;18.644;2023-04-15T16:40:02;5.88;;;3.50;;
18647;SDS011;9453;50.294;18.644;2023-04-15T16:42:31;5.20;;;3.13;;
18647;SDS011;9453;50.294;18.644;2023-04-15T16:44:59;4.37;;;2.80;;
18647;SDS011;9453;50.294;18.644;2023-04-15T16:47:28;7.63;;;4.47;;
18647;SDS011;9453;50.294;18.644;2023-04-15T16:49:55;8.13;;;4.43;;
18647;SDS011;9453;50.294;18.644;2023-04-15T16:52:22;10.97;;;5.17;;
18647;SDS011;9453;50.294;18.644;2023-04-15T16:54:49;10.10;;;4.70;;
18647;SDS011;9453;50.294;18.644;2023-04-15T16:57:16;9.23;;;4.73;;
18647;SDS011;9453;50.294;18.644;2023-04-15T16:59:44;9.27;;;4.90;;
18647;SDS011;9453;50.294;18.644;2023-04-15T17:02:12;9.73;;;4.70;;
18647;SDS011;9453;50.294;18.644;2023-04-15T17:04:39;9.93;;;5.17;;
18647;SDS011;9453;50.294;18.644;2023-04-15T17:07:06;10.20;;;5.23;;
18647;SDS011;9453;50.294;18.644;2023-04-15T17:09:34;10.80;;;5.40;;
18647;SDS011;9453;50.294;18.644;2023-04-15T17:12:02;9.57;;;5.03;;
18647;SDS011;9453;50.294;18.644;2023-04-15T17:14:30;12.03;;;5.93;;
18647;SDS011;9453;50.294;18.644;2023-04-15T17:17:00;13.30;;;6.90;;
18647;SDS011;9453;50.294;18.644;2023-04-15T17:19:27;12.20;;;6.10;;
18647;SDS011;9453;50.294;18.644;2023-04-15T17:21:54;13.63;;;6.33;;
18647;SDS011;9453;50.294;18.644;2023-04-15T17:24:22;12.77;;;5.60;;
18647;SDS011;9453;50.294;18.644;2023-04-15T17:26:49;14.10;;;7.00;;
18647;SDS011;9453;50.294;18.644;2023-04-15T17:29:16;17.60;;;7.90;;
18647;SDS011;9453;50.294;18.644;2023-04-15T17:31:45;15.93;;;7.50;;
18647;SDS011;9453;50.294;18.644;2023-04-15T17:34:13;12.63;;;6.27;;
18647;SDS011;9453;50.294;18.644;2023-04-15T17:36:40;11.70;;;6.00;;
18647;SDS011;9453;50.294;18.644;2023-04-15T17:39:07;10.27;;;5.37;;
18647;SDS011;9453;50.294;18.644;2023-04-15T17:41:35;9.53;;;5.30;;
18647;SDS011;9453;50.294;18.644;2023-04-15T17:44:02;8.50;;;4.07;;
18647;SDS011;9453;50.294;18.644;2023-04-15T17:46:32;6.40;;;3.80;;
18647;SDS011;9453;50.294;18.644;2023-04-15T17:49:02;10.20;;;4.17;;
18647;SDS011;9453;50.294;18.644;2023-04-15T17:51:31;10.67;;;4.90;;
18647;SDS011;9453;50.294;18.644;2023-04-15T17:53:58;10.87;;;4.80;;
18647;SDS011;9453;50.294;18.644;2023-04-15T17:56:30;7.87;;;4.47;;
18647;SDS011;9453;50.294;18.644;2023-04-15T17:59:08;12.27;;;5.27;;
18647;SDS011;9453;50.294;18.644;2023-04-15T18:01:35;13.20;;;6.03;;
18647;SDS011;9453;50.294;18.644;2023-04-15T18:04:02;10.40;;;5.90;;
18647;SDS011;9453;50.294;18.644;2023-04-15T18:06:29;12.43;;;6.07;;
18647;SDS011;9453;50.294;18.644;2023-04-15T18:08:58;10.30;;;5.40;;
18647;SDS011;9453;50.294;18.644;2023-04-15T18:11:25;14.80;;;7.00;;
18647;SDS011;9453;50.294;18.644;2023-04-15T18:13:52;12.77;;;6.20;;
18647;SDS011;9453;50.294;18.644;2023-04-15T18:16:19;12.20;;;5.40;;
18647;SDS011;9453;50.294;18.644;2023-04-15T18:18:46;11.17;;;6.20;;
18647;SDS011;9453;50.294;18.644;2023-04-15T18:21:13;8.17;;;4.93;;
18647;SDS011;9453;50.294;18.644;2023-04-15T18:23:41;7.57;;;4.03;;
18647;SDS011;9453;50.294;18.644;2023-04-15T18:26:08;6.93;;;3.60;;
18647;SDS011;9453;50.294;18.644;2023-04-15T18:28:35;5.80;;;3.53;;
18647;SDS011;9453;50.294;18.644;2023-04-15T18:31:04;9.00;;;3.70;;
18647;SDS011;9453;50.294;18.644;2023-04-15T18:33:31;7.03;;;3.13;;
18647;SDS011;9453;50.294;18.644;2023-04-15T18:35:59;3.67;;;2.27;;
18647;SDS011;9453;50.294;18.644;2023-04-15T18:38:26;5.07;;;2.30;;
18647;SDS011;9453;50.294;18.644;2023-04-15T18:40:55;5.03;;;2.60;;
18647;SDS011;9453;50.294;18.644;2023-04-15T18:43:22;6.53;;;3.43;;
18647;SDS011;9453;50.294;18.644;2023-04-15T18:45:49;7.80;;;3.43;;
18647;SDS011;9453;50.294;18.644;2023-04-15T18:48:18;6.27;;;3.77;;
18647;SDS011;9453;50.294;18.644;2023-04-15T18:50:45;11.67;;;5.70;;
18647;SDS011;9453;50.294;18.644;2023-04-15T18:53:13;10.23;;;5.10;;
18647;SDS011;9453;50.294;18.644;2023-04-15T18:55:40;11.50;;;4.97;;
18647;SDS011;9453;50.294;18.644;2023-04-15T18:58:08;9.43;;;4.80;;
18647;SDS011;9453;50.294;18.644;2023-04-15T19:00:35;11.07;;;5.20;;
18647;SDS011;9453;50.294;18.644;2023-04-15T19:03:05;11.43;;;5.57;;
18647;SDS011;9453;50.294;18.644;2023-04-15T19:05:32;11.60;;;6.00;;